SPHI/CIX METAR and TAF weather

Enter ICAO airport designator
Station Type Date Time Source
SPHI METAR 2021/09/23 23:00 UTC NOAA

SPHI 232300Z 18015KT CAVOK 18/13 Q1011 RMK BIRD HAZARD RWY 19/01 PP000


Station Type Date Time Source
SPHI Decoded METAR 2021/09/23 23:00 UTC NOAA

Chiclayo, Peru (SPHI) 06-47S 079-50W 34M
Sep 23, 2021 - 07:00 PM EDT / 2021.09.23 2300 UTC
Wind: from the S (180 degrees) at 17 MPH (15 KT):0
Visibility: greater than 7 mile(s):0
Temperature: 64 F (18 C)
Dew Point: 55 F (13 C)
Relative Humidity: 72%
Pressure (altimeter): 29.85 in. Hg (1011 hPa)
ob: SPHI 232300Z 18015KT CAVOK 18/13 Q1011 RMK BIRD HAZARD RWY 19/01 PP000
cycle: 23

Station Type Date Time Source
SPHI TAF 2021/09/23 18:41 UTC NOAA

TAF SPHI 231700Z 2318/2418 22014KT CAVOK TX23/2319Z TN14/2411Z
BECMG 2409/2411 17006KT 9999 OVC009

Example: see airport list